Time;durP1;ratioP1;P1;durP2;ratioP2;P2;SDS_P1;SDS_P2;PMS_P1;PMS_P2;Temp;Humidity;BMP_temperature;BMP_pressure;BME280_temperature;BME280_humidity;BME280_pressure;Samples;Min_cycle;Max_cycle;Signal;HPM_P1;HPM_P2
2023/01/04 00:02:30;;;;;;;2.67;2.47;;;;;;;4.83;100.00;101537.28;4995018;28;20723;-76
2023/01/04 00:04:56;;;;;;;2.50;2.30;;;;;;;4.84;100.00;101538.19;4999096;28;20831;-77
2023/01/04 00:07:21;;;;;;;2.27;2.17;;;;;;;4.85;100.00;101533.09;4994189;28;20231;-78
2023/01/04 00:09:46;;;;;;;2.50;2.30;;;;;;;4.86;100.00;101536.50;4993641;28;20243;-77
2023/01/04 00:12:12;;;;;;;2.30;2.10;;;;;;;4.86;100.00;101539.97;4990248;28;20249;-77
2023/01/04 00:14:37;;;;;;;3.00;2.37;;;;;;;4.86;100.00;101542.53;4995094;28;20224;-78
2023/01/04 00:17:05;;;;;;;2.73;2.53;;;;;;;4.86;100.00;101537.41;5002286;28;20228;-77
2023/01/04 00:19:31;;;;;;;2.80;2.60;;;;;;;4.85;100.00;101542.47;5005132;28;21011;-76
2023/01/04 00:21:56;;;;;;;2.73;2.53;;;;;;;4.81;100.00;101540.63;5012528;28;20213;-77
2023/01/04 00:24:21;;;;;;;2.90;2.70;;;;;;;4.78;100.00;101545.66;4998053;28;21063;-77
2023/01/04 00:26:46;;;;;;;3.27;2.87;;;;;;;4.73;100.00;101545.50;4993067;28;20665;-77
2023/01/04 00:29:12;;;;;;;3.30;3.10;;;;;;;4.68;100.00;101539.31;4995379;28;20190;-76
2023/01/04 00:31:38;;;;;;;3.40;3.10;;;;;;;4.64;100.00;101534.88;4992813;28;20226;-78
2023/01/04 00:34:04;;;;;;;3.43;3.13;;;;;;;4.61;100.00;101534.81;5015871;28;20263;-78
2023/01/04 00:36:31;;;;;;;4.67;4.20;;;;;;;4.57;100.00;101532.13;5047559;28;20200;-78
2023/01/04 00:39:08;;;;;;;6.07;4.70;;;;;;;4.53;100.00;101529.41;5005783;28;20279;-77
2023/01/04 00:41:39;;;;;;;4.43;4.13;;;;;;;4.51;100.00;101531.03;4989223;28;20226;-78
2023/01/04 00:44:05;;;;;;;4.50;4.10;;;;;;;4.48;100.00;101528.34;4998895;28;20282;-77
2023/01/04 00:46:31;;;;;;;4.60;4.20;;;;;;;4.43;100.00;101530.75;5000771;28;20225;-77
2023/01/04 00:48:58;;;;;;;4.17;3.87;;;;;;;4.40;100.00;101528.94;4993349;28;20701;-76
2023/01/04 00:51:23;;;;;;;4.20;3.90;;;;;;;4.35;100.00;101530.47;4993206;28;20205;-77
2023/01/04 00:53:48;;;;;;;4.17;3.83;;;;;;;4.32;100.00;101526.91;4995858;28;20190;-77
2023/01/04 00:56:13;;;;;;;4.57;4.17;;;;;;;4.28;100.00;101525.94;5001894;28;20192;-76
2023/01/04 00:58:39;;;;;;;4.23;3.83;;;;;;;4.24;100.00;101531.75;4995949;28;20248;-77
2023/01/04 01:01:06;;;;;;;4.87;4.47;;;;;;;4.20;100.00;101529.91;4994057;28;20255;-77
2023/01/04 01:03:31;;;;;;;4.87;4.47;;;;;;;4.17;100.00;101527.22;4994556;28;20189;-77
2023/01/04 01:06:04;;;;;;;4.97;4.53;;;;;;;4.13;100.00;101533.94;4994900;28;20264;-77
2023/01/04 01:08:31;;;;;;;6.00;5.50;;;;;;;4.10;100.00;101523.56;5002118;28;20243;-77
2023/01/04 01:11:02;;;;;;;5.93;5.43;;;;;;;4.05;100.00;101525.06;4994569;28;20960;-77
2023/01/04 01:13:28;;;;;;;6.30;5.80;;;;;;;4.01;100.00;101529.22;5000623;28;20348;-78
2023/01/04 01:15:53;;;;;;;6.37;5.77;;;;;;;3.96;100.00;101531.59;4994528;28;20190;-77
2023/01/04 01:18:18;;;;;;;6.67;6.10;;;;;;;3.94;100.00;101527.22;4995719;28;20245;-77
2023/01/04 01:20:44;;;;;;;7.03;6.43;;;;;;;3.90;100.00;101533.06;4998486;28;20399;-76
2023/01/04 01:23:14;;;;;;;7.27;6.67;;;;;;;3.88;100.00;101534.69;4995539;28;20287;-77
2023/01/04 01:25:40;;;;;;;7.57;6.97;;;;;;;3.85;100.00;101527.78;4993673;28;20193;-77
2023/01/04 01:28:06;;;;;;;7.87;7.20;;;;;;;3.84;100.00;101541.38;4991839;28;20178;-76
2023/01/04 01:30:31;;;;;;;8.00;7.40;;;;;;;3.81;100.00;101544.69;4996101;28;20254;-76
2023/01/04 01:32:57;;;;;;;8.60;7.90;;;;;;;3.80;100.00;101531.81;4997018;28;20227;-77
2023/01/04 01:35:22;;;;;;;7.70;7.10;;;;;;;3.78;100.00;101533.44;4996686;28;20279;-77
2023/01/04 01:37:47;;;;;;;7.87;7.17;;;;;;;3.79;100.00;101540.31;4999944;28;20202;-78
2023/01/04 01:40:13;;;;;;;8.70;7.90;;;;;;;3.78;100.00;101536.88;4996222;28;20240;-77
2023/01/04 01:42:38;;;;;;;8.73;8.03;;;;;;;3.79;100.00;101530.09;5001925;28;20197;-78
2023/01/04 01:45:20;;;;;;;8.80;8.00;;;;;;;3.77;100.00;101535.16;4996332;28;20189;-77
2023/01/04 01:47:49;;;;;;;8.87;8.13;;;;;;;3.74;100.00;101540.16;4995471;28;20707;-77
2023/01/04 01:50:29;;;;;;;8.67;7.97;;;;;;;3.70;100.00;101535.72;4989777;28;20762;-78
2023/01/04 01:52:57;;;;;;;8.70;8.00;;;;;;;3.68;100.00;101532.22;5001131;28;21001;-76
2023/01/04 01:55:23;;;;;;;7.57;6.97;;;;;;;3.68;100.00;101532.22;5001163;28;20738;-77
2023/01/04 01:57:50;;;;;;;9.33;8.10;;;;;;;3.70;100.00;101529.72;5001890;28;20213;-77
2023/01/04 02:00:16;;;;;;;9.37;8.57;;;;;;;3.72;100.00;101528.06;5000963;28;20220;-77
2023/01/04 02:02:56;;;;;;;8.47;7.77;;;;;;;3.74;100.00;101531.56;4993139;28;20184;-76
2023/01/04 02:05:23;;;;;;;7.87;7.20;;;;;;;3.76;100.00;101528.28;5002350;28;20214;-77
2023/01/04 02:07:49;;;;;;;9.20;8.40;;;;;;;3.81;100.00;101528.47;5006089;28;20179;-77
2023/01/04 02:10:15;;;;;;;9.60;8.77;;;;;;;3.83;100.00;101524.28;5004556;28;20204;-78
2023/01/04 02:12:42;;;;;;;9.83;9.00;;;;;;;3.86;100.00;101526.94;5002159;28;20224;-77
2023/01/04 02:15:07;;;;;;;10.27;9.40;;;;;;;3.92;100.00;101528.88;4999864;28;20205;-77
2023/01/04 02:17:43;;;;;;;11.57;10.47;;;;;;;3.99;100.00;101532.53;5011746;28;20201;-77
2023/01/04 02:20:32;;;;;;;13.40;12.20;;;;;;;4.07;100.00;101524.34;4994623;28;20196;-77
2023/01/04 02:23:36;;;;;;;15.73;14.33;;;;;;;4.18;100.00;101524.72;5002525;28;20296;-77
2023/01/04 02:26:58;;;;;;;17.37;15.77;;;;;;;4.31;100.00;101508.09;4998880;28;20199;-78
2023/01/04 02:30:02;;;;;;;23.57;21.37;;;;;;;4.39;100.00;101510.94;4971833;28;20195;-77
2023/01/04 02:32:50;;;;;;;22.00;20.00;;;;;;;4.45;100.00;101502.59;4905074;29;20620;-77
2023/01/04 02:35:21;;;;;;;20.93;19.03;;;;;;;4.52;100.00;101499.47;4922589;28;20287;-77
2023/01/04 02:38:01;;;;;;;20.63;18.73;;;;;;;4.56;100.00;101489.34;4970004;28;20304;-78
2023/01/04 02:40:46;;;;;;;20.47;18.57;;;;;;;4.61;100.00;101494.63;5000314;28;20221;-77
2023/01/04 02:46:13;;;;;;;18.80;17.13;;;;;;;4.66;100.00;101488.00;4995072;28;20211;-78
2023/01/04 02:51:35;;;;;;;20.20;18.33;;;;;;;4.71;100.00;101485.59;5025281;28;20716;-77
2023/01/04 02:54:09;;;;;;;21.73;19.70;;;;;;;4.71;100.00;101490.72;4994298;28;20197;-77
2023/01/04 02:56:51;;;;;;;21.83;19.83;;;;;;;4.70;100.00;101484.69;4998103;28;20228;-77
2023/01/04 02:59:29;;;;;;;21.43;19.53;;;;;;;4.71;100.00;101494.13;4994072;28;21124;-77
2023/01/04 03:08:07;;;;;;;22.37;20.37;;;;;;;4.75;100.00;101497.69;4988890;28;20207;-78
2023/01/04 03:10:36;;;;;;;23.27;21.17;;;;;;;4.75;100.00;101491.69;4998756;28;20208;-77
2023/01/04 03:13:26;;;;;;;22.83;20.83;;;;;;;4.73;100.00;101489.06;4995050;28;20694;-78
2023/01/04 03:15:59;;;;;;;22.17;20.10;;;;;;;4.73;100.00;101489.06;4995803;28;20232;-77
2023/01/04 03:18:32;;;;;;;23.63;21.50;;;;;;;4.77;100.00;101480.66;4998427;28;20218;-77
2023/01/04 03:21:00;;;;;;;23.23;21.10;;;;;;;4.78;100.00;101476.41;4997331;28;20556;-78
2023/01/04 03:37:42;;;;;;;22.60;20.53;;;;;;;4.60;100.00;101446.75;4989530;28;20224;-76
2023/01/04 03:49:20;;;;;;;21.27;19.37;;;;;;;4.37;100.00;101443.38;4991705;28;20982;-77
2023/01/04 03:51:50;;;;;;;20.53;18.73;;;;;;;4.33;100.00;101431.28;4997887;28;20215;-77
2023/01/04 03:54:25;;;;;;;20.70;18.90;;;;;;;4.32;100.00;101425.28;5001205;28;20202;-78
2023/01/04 03:56:51;;;;;;;19.90;18.10;;;;;;;4.30;100.00;101424.34;4992135;28;20198;-78
2023/01/04 03:59:21;;;;;;;19.67;17.87;;;;;;;4.29;100.00;101422.59;4992948;28;20229;-77
2023/01/04 04:01:47;;;;;;;19.70;18.00;;;;;;;4.28;100.00;101420.88;4995166;28;20267;-77
2023/01/04 04:09:40;;;;;;;19.37;17.57;;;;;;;4.24;100.00;101409.63;5001774;28;20297;-77
2023/01/04 04:12:05;;;;;;;19.03;17.33;;;;;;;4.25;100.00;101390.88;5001558;28;20220;-77
2023/01/04 04:14:31;;;;;;;17.60;16.03;;;;;;;4.29;100.00;101383.31;4996376;28;20694;-76
2023/01/04 04:16:56;;;;;;;16.27;14.87;;;;;;;4.29;100.00;101385.88;5002731;28;20189;-77
2023/01/04 04:19:21;;;;;;;14.70;13.50;;;;;;;4.28;100.00;101385.00;4994281;28;20664;-76
2023/01/04 04:21:47;;;;;;;13.33;12.23;;;;;;;4.26;100.00;101387.50;4998250;28;20233;-77
2023/01/04 04:24:17;;;;;;;12.47;11.47;;;;;;;4.27;100.00;101381.56;4992275;28;20637;-77
2023/01/04 04:26:42;;;;;;;12.03;11.03;;;;;;;4.29;100.00;101375.63;4995353;28;20248;-76
2023/01/04 04:29:08;;;;;;;11.63;10.53;;;;;;;4.28;100.00;101359.34;4996999;28;20178;-76
2023/01/04 04:31:33;;;;;;;11.23;10.23;;;;;;;4.26;100.00;101351.63;4994459;28;20208;-76
2023/01/04 04:33:58;;;;;;;9.93;9.13;;;;;;;4.24;100.00;101347.25;4988590;28;20225;-77
2023/01/04 04:36:24;;;;;;;9.07;8.37;;;;;;;4.21;100.00;101355.72;4988137;28;20199;-76
2023/01/04 04:38:49;;;;;;;8.90;8.20;;;;;;;4.20;100.00;101353.13;4991803;28;20208;-77
2023/01/04 04:43:58;;;;;;;7.70;7.10;;;;;;;4.16;100.00;101349.56;4990855;28;20239;-78
2023/01/04 04:46:24;;;;;;;7.53;6.93;;;;;;;4.19;100.00;101346.25;5002147;28;20212;-76
2023/01/04 04:48:49;;;;;;;6.80;6.20;;;;;;;4.21;100.00;101350.59;4990566;28;20232;-76
2023/01/04 04:51:15;;;;;;;7.57;6.77;;;;;;;4.23;100.00;101345.53;4992342;28;20659;-76
2023/01/04 04:53:40;;;;;;;6.20;5.70;;;;;;;4.25;100.00;101354.13;4985891;28;20249;-76
2023/01/04 04:56:06;;;;;;;6.83;6.33;;;;;;;4.30;100.00;101349.19;4987458;28;20209;-77
2023/01/04 04:58:32;;;;;;;6.30;5.70;;;;;;;4.37;100.00;101348.56;4991264;28;20216;-77
2023/01/04 05:00:57;;;;;;;6.07;5.57;;;;;;;4.42;100.00;101340.19;4996859;28;20240;-77
2023/01/04 05:03:22;;;;;;;5.97;5.50;;;;;;;4.50;100.00;101337.03;5035117;28;20172;-77
2023/01/04 05:05:48;;;;;;;5.57;5.17;;;;;;;4.55;100.00;101336.34;5024569;28;20198;-76
2023/01/04 05:08:13;;;;;;;5.90;5.30;;;;;;;4.61;100.00;101330.53;4994053;28;20194;-76
2023/01/04 05:10:38;;;;;;;5.13;4.67;;;;;;;4.67;100.00;101333.31;5000664;28;20748;-75
2023/01/04 05:13:06;;;;;;;5.70;5.20;;;;;;;4.72;100.00;101333.47;4996074;28;20912;-75
2023/01/04 05:15:40;;;;;;;4.47;4.07;;;;;;;4.77;100.00;101321.63;4995342;28;20216;-76
2023/01/04 05:18:06;;;;;;;4.60;4.17;;;;;;;4.81;100.00;101320.06;4998070;28;20216;-77
2023/01/04 05:20:32;;;;;;;4.37;4.03;;;;;;;4.84;100.00;101320.16;4998094;28;20612;-77
2023/01/04 05:22:57;;;;;;;4.17;3.70;;;;;;;4.87;100.00;101317.66;4993920;28;20193;-75
2023/01/04 05:25:23;;;;;;;3.57;3.27;;;;;;;4.93;100.00;101322.13;4995979;28;20549;-76
2023/01/04 05:27:49;;;;;;;3.20;2.90;;;;;;;4.99;100.00;101315.47;4994141;28;20187;-76
2023/01/04 05:33:00;;;;;;;2.63;2.43;;;;;;;5.15;100.00;101318.50;4992382;28;20203;-76
2023/01/04 05:35:26;;;;;;;2.53;1.90;;;;;;;5.24;100.00;101323.03;5000284;28;20292;-76
2023/01/04 05:37:52;;;;;;;2.03;1.87;;;;;;;5.32;100.00;101325.00;4999063;28;20304;-76
2023/01/04 05:40:17;;;;;;;1.73;1.30;;;;;;;5.42;100.00;101315.88;4994766;28;20215;-76
2023/01/04 05:42:43;;;;;;;2.70;1.63;;;;;;;5.53;100.00;101315.31;4988457;28;20212;-75
2023/01/04 05:45:08;;;;;;;2.17;1.40;;;;;;;5.64;100.00;101311.38;4996661;28;20248;-76
2023/01/04 05:47:34;;;;;;;1.40;1.30;;;;;;;5.71;100.00;101310.69;4992920;28;20634;-76
2023/01/04 05:49:59;;;;;;;1.97;1.33;;;;;;;5.83;100.00;101309.28;4992302;28;20195;-77
2023/01/04 05:52:24;;;;;;;1.63;1.30;;;;;;;5.90;100.00;101308.63;4992842;28;20195;-76
2023/01/04 05:54:50;;;;;;;2.23;1.30;;;;;;;5.97;100.00;101313.13;4990779;28;20185;-76
2023/01/04 05:57:15;;;;;;;2.23;1.37;;;;;;;6.05;100.00;101313.34;4985794;28;20647;-76
2023/01/04 05:59:40;;;;;;;1.43;1.30;;;;;;;6.12;100.00;101311.81;4995466;28;20216;-77
2023/01/04 06:02:07;;;;;;;1.87;1.53;;;;;;;6.19;100.00;101311.13;5001757;28;22436;-76
2023/01/04 06:04:32;;;;;;;2.10;1.10;;;;;;;6.23;100.00;101300.94;5002467;28;20244;-75
2023/01/04 06:06:57;;;;;;;2.37;1.77;;;;;;;6.30;100.00;101304.53;4994019;28;20196;-77
2023/01/04 06:09:26;;;;;;;2.37;1.30;;;;;;;6.36;100.00;101303.81;5000875;28;20197;-77
2023/01/04 06:11:52;;;;;;;1.67;1.13;;;;;;;6.39;100.00;101302.22;5001551;28;20213;-75
2023/01/04 06:14:17;;;;;;;1.17;1.00;;;;;;;6.45;100.00;101316.03;4995515;28;20197;-75
2023/01/04 06:16:43;;;;;;;1.90;1.30;;;;;;;6.50;100.00;101317.03;5004814;28;20192;-76
2023/01/04 06:19:08;;;;;;;1.77;1.23;;;;;;;6.53;100.00;101304.25;5003287;28;20296;-77
2023/01/04 06:21:33;;;;;;;2.27;1.00;;;;;;;6.59;100.00;101308.69;5001228;28;20215;-76
2023/01/04 06:23:59;;;;;;;1.30;1.20;;;;;;;6.61;100.00;101297.59;4999684;28;20669;-77
2023/01/04 06:26:24;;;;;;;1.80;1.30;;;;;;;6.65;100.00;101301.97;4992994;28;20275;-78
2023/01/04 06:28:49;;;;;;;1.47;0.90;;;;;;;6.67;100.00;101310.59;4994372;28;20722;-76
2023/01/04 06:31:15;;;;;;;1.67;1.10;;;;;;;6.72;100.00;101297.84;4992230;28;20714;-76
2023/01/04 06:33:40;;;;;;;1.87;1.23;;;;;;;6.74;100.00;101293.59;4989987;28;20204;-76
2023/01/04 06:36:06;;;;;;;3.07;1.30;;;;;;;6.80;100.00;101292.88;4993853;28;20185;-76
2023/01/04 06:38:32;;;;;;;3.77;1.40;;;;;;;6.82;100.00;101304.06;5001548;28;20309;-76
2023/01/04 06:40:58;;;;;;;1.23;1.13;;;;;;;6.84;100.00;101294.69;4999243;28;20208;-76
2023/01/04 06:43:23;;;;;;;1.27;1.10;;;;;;;6.85;100.00;101299.84;4998427;28;20203;-76
2023/01/04 06:45:49;;;;;;;3.57;1.30;;;;;;;6.89;100.00;101302.50;5007151;28;20184;-76
2023/01/04 06:48:14;;;;;;;2.00;1.40;;;;;;;6.90;100.00;101305.09;5002132;28;20191;-76
2023/01/04 06:50:40;;;;;;;2.27;1.20;;;;;;;6.91;100.00;101306.84;5006723;28;20206;-76
2023/01/04 06:53:05;;;;;;;2.43;1.30;;;;;;;6.93;100.00;101304.31;5004108;28;20678;-76
2023/01/04 06:55:30;;;;;;;1.73;1.10;;;;;;;6.96;100.00;101286.34;5000765;28;20191;-76
2023/01/04 06:57:56;;;;;;;2.33;0.93;;;;;;;6.97;100.00;101288.97;4991605;28;20307;-74
2023/01/04 07:00:22;;;;;;;2.33;1.30;;;;;;;7.01;100.00;101287.31;4992015;28;20254;-74
2023/01/04 07:02:47;;;;;;;1.50;1.17;;;;;;;7.00;100.00;101286.47;4990042;28;20183;-78
2023/01/04 07:05:13;;;;;;;1.47;0.80;;;;;;;7.00;100.00;101290.72;4997308;28;20195;-77
2023/01/04 07:07:38;;;;;;;1.60;1.20;;;;;;;7.00;100.00;101283.00;4996462;28;20191;-76
2023/01/04 07:10:05;;;;;;;2.97;1.37;;;;;;;7.04;100.00;101282.25;4990389;28;20672;-75
2023/01/04 07:12:31;;;;;;;2.30;1.03;;;;;;;7.04;100.00;101282.25;4991965;28;20196;-76
2023/01/04 07:14:56;;;;;;;1.57;1.00;;;;;;;7.04;100.00;101279.69;5003403;28;20234;-77
2023/01/04 07:17:21;;;;;;;1.83;1.20;;;;;;;7.04;100.00;101269.38;5020587;28;20207;-74
2023/01/04 07:19:46;;;;;;;2.10;1.20;;;;;;;7.07;100.00;101281.44;5003645;28;20195;-75
2023/01/04 07:22:12;;;;;;;2.90;1.13;;;;;;;7.07;100.00;101282.31;4996906;28;20701;-76
2023/01/04 07:24:37;;;;;;;1.40;0.90;;;;;;;7.06;100.00;101279.69;5000166;28;20194;-75
2023/01/04 07:27:02;;;;;;;1.40;0.80;;;;;;;7.10;100.00;101284.09;4998454;28;20187;-76
2023/01/04 07:29:28;;;;;;;1.77;1.00;;;;;;;7.16;100.00;101289.38;4996603;28;20332;-77
2023/01/04 07:31:54;;;;;;;1.87;0.90;;;;;;;7.15;100.00;101283.34;4997583;28;20202;-75
2023/01/04 07:34:22;;;;;;;1.37;0.97;;;;;;;7.19;100.00;101286.00;4999592;28;20184;-76
2023/01/04 07:36:48;;;;;;;1.30;1.00;;;;;;;7.22;100.00;101284.34;5002350;28;20318;-77
2023/01/04 07:39:14;;;;;;;2.40;1.00;;;;;;;7.21;100.00;101274.88;5000608;28;20211;-76
2023/01/04 07:41:40;;;;;;;2.30;1.13;;;;;;;7.32;100.00;101277.69;5012411;28;20299;-76
2023/01/04 07:44:07;;;;;;;2.83;1.00;;;;;;;7.33;100.00;101280.28;5001554;28;20374;-76
2023/01/04 07:46:33;;;;;;;1.00;0.90;;;;;;;7.39;100.00;101284.72;5003975;28;20189;-77
2023/01/04 07:48:59;;;;;;;2.37;1.20;;;;;;;7.43;100.00;101267.59;4992022;28;20183;-75
2023/01/04 07:51:24;;;;;;;1.97;1.07;;;;;;;7.40;100.00;101265.84;4995438;28;20220;-76
2023/01/04 07:53:50;;;;;;;1.93;1.27;;;;;;;7.42;100.00;101261.56;4996690;28;20270;-75
2023/01/04 07:56:16;;;;;;;2.63;1.03;;;;;;;7.42;100.00;101271.88;4997460;28;20202;-76
2023/01/04 07:58:41;;;;;;;1.40;0.80;;;;;;;7.41;100.00;101272.69;5012233;28;20286;-76
2023/01/04 08:01:17;;;;;;;1.00;0.80;;;;;;;7.43;100.00;101260.72;4992362;28;20216;-76
2023/01/04 08:03:44;;;;;;;1.83;0.80;;;;;;;7.46;100.00;101265.94;4996147;28;20191;-76
2023/01/04 08:06:11;;;;;;;1.97;0.90;;;;;;;7.47;100.00;101259.09;4995386;28;20729;-76
2023/01/04 08:08:37;;;;;;;2.07;0.90;;;;;;;7.49;100.00;101249.66;4992319;28;20235;-77
2023/01/04 08:11:05;;;;;;;1.93;1.17;;;;;;;7.53;100.00;101243.75;4996852;28;20204;-76
2023/01/04 08:13:31;;;;;;;1.00;0.90;;;;;;;7.53;100.00;101248.91;4999011;28;20199;-76
2023/01/04 08:15:57;;;;;;;1.37;0.83;;;;;;;7.60;100.00;101234.44;4997318;28;20184;-76
2023/01/04 08:18:22;;;;;;;1.20;0.80;;;;;;;7.63;100.00;101231.91;5003273;28;20220;-77
2023/01/04 08:20:48;;;;;;;1.17;0.70;;;;;;;7.63;100.00;101227.66;5001319;28;20204;-76
2023/01/04 08:23:13;;;;;;;1.70;1.00;;;;;;;7.70;100.00;101217.44;4994184;28;20185;-77
2023/01/04 08:25:39;;;;;;;2.20;1.00;;;;;;;7.76;100.00;101213.25;4987895;28;20808;-76
2023/01/04 08:28:05;;;;;;;1.33;1.03;;;;;;;7.80;100.00;101209.00;4984834;28;20180;-76
2023/01/04 08:30:30;;;;;;;1.40;0.80;;;;;;;7.85;100.00;101207.41;4986564;28;20299;-76
2023/01/04 08:32:56;;;;;;;1.10;0.80;;;;;;;7.92;100.00;101204.09;4992415;28;20583;-77
2023/01/04 08:35:22;;;;;;;3.77;0.80;;;;;;;7.98;100.00;101205.91;4992752;28;20205;-76
2023/01/04 08:37:47;;;;;;;1.60;0.87;;;;;;;8.08;100.00;101204.34;4991089;28;20602;-77
2023/01/04 08:40:12;;;;;;;0.93;0.83;;;;;;;8.12;100.00;101202.69;4994467;28;20194;-76
2023/01/04 08:42:38;;;;;;;1.50;0.90;;;;;;;8.17;100.00;101203.59;5003096;28;20184;-76
2023/01/04 08:45:04;;;;;;;1.83;0.80;;;;;;;8.23;100.00;101206.28;5012105;28;20185;-77
2023/01/04 08:47:31;;;;;;;2.03;0.80;;;;;;;8.25;100.00;101207.19;4997602;28;20262;-76
2023/01/04 08:50:00;;;;;;;1.10;0.73;;;;;;;8.25;100.00;101220.06;4999183;28;20192;-76
2023/01/04 08:52:25;;;;;;;2.20;0.90;;;;;;;8.31;100.00;101207.28;5007653;28;20176;-76
2023/01/04 08:54:50;;;;;;;3.00;1.00;;;;;;;8.35;100.00;101200.44;5008724;28;20191;-76
2023/01/04 08:57:17;;;;;;;1.20;0.90;;;;;;;8.43;100.00;101195.41;5004977;28;20208;-76
2023/01/04 08:59:42;;;;;;;2.07;0.90;;;;;;;8.46;100.00;101195.47;5003354;28;20185;-76
2023/01/04 09:02:27;;;;;;;1.10;0.80;;;;;;;8.55;100.00;101193.03;5005022;28;20748;-76
2023/01/04 09:04:58;;;;;;;1.90;0.90;;;;;;;8.58;100.00;101200.81;4999651;28;20191;-76
2023/01/04 09:07:24;;;;;;;3.33;1.37;;;;;;;8.58;100.00;101205.09;5004957;28;20207;-76
2023/01/04 09:09:49;;;;;;;2.27;1.70;;;;;;;8.60;100.00;101209.44;5003466;28;20180;-76
2023/01/04 09:12:14;;;;;;;1.70;1.57;;;;;;;8.63;100.00;101212.03;5005869;28;20220;-77
2023/01/04 09:14:40;;;;;;;2.10;1.17;;;;;;;8.69;100.00;101200.97;5002454;28;20188;-77
2023/01/04 09:17:05;;;;;;;2.57;1.47;;;;;;;8.71;100.00;101185.50;5004067;28;20189;-76
2023/01/04 09:19:30;;;;;;;2.00;1.80;;;;;;;8.83;100.00;101186.53;5000070;28;20180;-76
2023/01/04 09:21:56;;;;;;;2.67;2.00;;;;;;;8.89;100.00;101172.84;5005981;28;20200;-75
2023/01/04 09:24:21;;;;;;;2.50;1.60;;;;;;;9.00;100.00;101184.16;5013716;28;20185;-76
2023/01/04 09:26:47;;;;;;;2.20;2.00;;;;;;;9.04;100.00;101186.78;5006143;28;20184;-76
2023/01/04 09:29:12;;;;;;;2.13;1.50;;;;;;;9.07;100.00;101198.00;5004669;28;20556;-76
2023/01/04 09:31:37;;;;;;;1.80;1.27;;;;;;;9.12;100.00;101192.88;5024966;28;20227;-77
2023/01/04 09:34:03;;;;;;;1.70;1.30;;;;;;;9.15;100.00;101195.50;5031400;28;20170;-75
2023/01/04 09:36:28;;;;;;;1.57;1.20;;;;;;;9.19;100.00;101189.53;5011548;28;20755;-76
2023/01/04 09:38:54;;;;;;;2.00;1.53;;;;;;;9.25;100.00;101186.16;5001485;28;20213;-75
2023/01/04 09:41:43;;;;;;;1.77;1.47;;;;;;;9.30;100.00;101181.91;4998609;28;20216;-76
2023/01/04 09:44:08;;;;;;;2.00;1.40;;;;;;;9.30;100.00;101181.91;4999875;28;20279;-76
2023/01/04 09:46:43;;;;;;;1.43;0.90;;;;;;;9.33;100.00;101183.66;4999358;28;20269;-76
2023/01/04 09:49:17;;;;;;;1.17;1.00;;;;;;;9.34;100.00;101187.97;5003849;28;20187;-76
2023/01/04 09:51:50;;;;;;;2.67;1.50;;;;;;;9.33;100.00;101174.16;4997212;28;20208;-76
2023/01/04 09:54:19;;;;;;;2.00;1.50;;;;;;;9.39;100.00;101173.34;4995691;28;20216;-76
2023/01/04 09:56:50;;;;;;;2.00;1.23;;;;;;;9.40;100.00;101172.50;5001008;28;20196;-76
2023/01/04 09:59:19;;;;;;;2.50;1.70;;;;;;;9.44;100.00;101163.94;5002632;28;20300;-76
2023/01/04 10:01:48;;;;;;;1.50;1.20;;;;;;;9.54;100.00;101163.16;5001265;28;20219;-76
2023/01/04 10:04:22;;;;;;;1.57;0.93;;;;;;;9.56;100.00;101158.88;4999532;28;20277;-76
2023/01/04 10:06:48;;;;;;;2.20;1.40;;;;;;;9.63;99.99;101172.72;4999245;28;20278;-77
2023/01/04 10:09:15;;;;;;;1.30;1.00;;;;;;;9.65;99.84;101165.88;4997065;28;20181;-76
2023/01/04 10:11:50;;;;;;;3.13;1.30;;;;;;;9.65;100.00;101157.25;5002697;28;20211;-76
2023/01/04 10:14:42;;;;;;;1.47;1.07;;;;;;;9.70;99.74;101152.97;5004348;28;20190;-76
2023/01/04 10:17:07;;;;;;;2.27;1.23;;;;;;;9.73;99.61;101143.56;5000459;28;20186;-77
2023/01/04 10:20:02;;;;;;;1.13;1.00;;;;;;;9.74;99.36;101150.47;5001049;28;20553;-75
2023/01/04 10:22:50;;;;;;;2.13;1.70;;;;;;;9.69;99.48;101130.56;4996905;28;20191;-76
2023/01/04 10:25:24;;;;;;;2.37;1.27;;;;;;;9.65;99.65;101136.59;4997717;28;20578;-76
2023/01/04 10:28:11;;;;;;;2.87;1.40;;;;;;;9.65;99.70;101145.19;5000209;28;20183;-76
2023/01/04 10:30:49;;;;;;;2.17;1.20;;;;;;;9.66;99.33;101130.56;4998761;28;20699;-76
2023/01/04 10:33:21;;;;;;;1.67;1.10;;;;;;;9.65;98.97;101128.81;5002475;28;20215;-76
2023/01/04 10:35:47;;;;;;;1.53;1.20;;;;;;;9.61;99.31;101128.78;4996897;28;20652;-77
2023/01/04 10:38:22;;;;;;;2.87;1.90;;;;;;;9.67;98.87;101125.41;4999514;28;20205;-78
2023/01/04 10:40:49;;;;;;;1.97;1.67;;;;;;;9.67;99.22;101125.41;4994962;28;20213;-76
2023/01/04 10:43:25;;;;;;;2.10;1.40;;;;;;;9.76;98.58;101124.59;5002802;28;20199;-78
2023/01/04 10:46:04;;;;;;;3.80;2.10;;;;;;;9.74;98.42;101119.44;4999953;28;20225;-76
2023/01/04 10:48:45;;;;;;;2.73;1.53;;;;;;;9.78;98.42;101117.72;4995874;28;20187;-76
2023/01/04 10:51:14;;;;;;;5.23;3.30;;;;;;;9.80;98.02;101105.69;4996924;28;20640;-76
2023/01/04 10:53:46;;;;;;;2.90;2.53;;;;;;;9.83;97.82;101100.50;5001031;28;20186;-77
2023/01/04 10:56:38;;;;;;;10.00;9.20;;;;;;;9.83;97.88;101092.75;5004471;28;20194;-76
2023/01/04 10:59:12;;;;;;;1.80;1.40;;;;;;;9.85;97.51;101098.81;4998197;28;20243;-76
2023/01/04 11:01:49;;;;;;;2.33;1.30;;;;;;;9.90;97.10;101083.34;4998271;28;20200;-75
2023/01/04 11:04:31;;;;;;;2.73;0.83;;;;;;;9.92;97.09;101094.53;4994782;28;20211;-75
2023/01/04 11:07:04;;;;;;;1.30;1.10;;;;;;;9.90;97.44;101094.56;4990468;28;20193;-76
2023/01/04 11:09:51;;;;;;;3.47;1.20;;;;;;;10.01;97.11;101089.44;4998517;28;20192;-77
2023/01/04 11:12:20;;;;;;;1.80;1.30;;;;;;;10.05;96.58;101100.66;4998688;28;20285;-76
2023/01/04 11:14:45;;;;;;;1.37;1.20;;;;;;;10.04;97.14;101097.25;4992625;28;20193;-76
2023/01/04 11:17:11;;;;;;;1.83;1.10;;;;;;;10.06;96.79;101089.47;4987485;28;20192;-77
2023/01/04 11:19:38;;;;;;;1.33;1.00;;;;;;;10.05;96.79;101087.75;5002219;28;20697;-78
2023/01/04 11:22:07;;;;;;;1.53;1.03;;;;;;;10.06;96.67;101095.50;5001151;28;20221;-77
2023/01/04 11:24:34;;;;;;;1.60;1.10;;;;;;;10.04;96.91;101081.72;5003379;28;20197;-78
2023/01/04 11:27:13;;;;;;;1.80;1.33;;;;;;;10.02;96.47;101095.47;5014028;28;20251;-76
2023/01/04 11:30:02;;;;;;;1.27;1.10;;;;;;;9.98;96.63;101088.56;5023267;28;20190;-76
2023/01/04 11:32:34;;;;;;;1.97;0.93;;;;;;;9.98;97.08;101094.59;4993357;28;20193;-76
2023/01/04 11:34:59;;;;;;;2.80;1.00;;;;;;;10.01;97.15;101092.03;5005517;28;20723;-77
2023/01/04 11:37:32;;;;;;;1.30;0.83;;;;;;;10.03;96.92;101079.09;4997613;28;20208;-76
2023/01/04 11:40:16;;;;;;;0.93;0.80;;;;;;;10.12;96.37;101074.00;5001507;28;20213;-76
2023/01/04 11:42:42;;;;;;;1.73;0.90;;;;;;;10.26;95.98;101078.38;5000559;28;20279;-76
2023/01/04 11:45:17;;;;;;;1.50;0.80;;;;;;;10.37;95.37;101080.16;5012955;28;20193;-76
2023/01/04 11:47:53;;;;;;;1.43;0.70;;;;;;;10.51;94.78;101085.44;5030463;28;20201;-76
2023/01/04 11:50:44;;;;;;;1.33;0.90;;;;;;;10.63;94.65;101087.22;5000225;28;20195;-76
2023/01/04 11:53:26;;;;;;;1.30;0.70;;;;;;;10.78;93.89;101082.94;4999307;28;20228;-76
2023/01/04 11:56:11;;;;;;;1.50;0.80;;;;;;;10.88;93.89;101087.28;5000593;28;20199;-75
2023/01/04 11:58:36;;;;;;;0.90;0.60;;;;;;;10.97;93.50;101084.69;4991551;28;20216;-75
2023/01/04 12:01:02;;;;;;;0.80;0.73;;;;;;;11.12;92.32;101090.75;4991473;28;20211;-78
2023/01/04 12:03:33;;;;;;;1.60;0.90;;;;;;;11.16;92.39;101087.31;4999556;28;20267;-77
2023/01/04 12:05:58;;;;;;;1.43;0.70;;;;;;;11.19;92.77;101087.34;4999637;28;20582;-75
2023/01/04 12:08:29;;;;;;;1.57;1.00;;;;;;;11.20;92.42;101085.59;4995708;28;20190;-76
2023/01/04 12:10:55;;;;;;;1.10;0.87;;;;;;;11.15;92.90;101079.56;4991915;28;20769;-75
2023/01/04 12:13:21;;;;;;;1.83;0.97;;;;;;;11.13;93.23;101085.59;4993727;28;20304;-75
2023/01/04 12:16:20;;;;;;;1.00;0.80;;;;;;;11.10;93.05;101080.41;4999046;28;20355;-78
2023/01/04 12:18:45;;;;;;;1.43;0.90;;;;;;;11.16;92.85;101074.38;5001479;28;20217;-75
2023/01/04 12:21:24;;;;;;;1.50;0.90;;;;;;;11.18;92.77;101072.66;4999526;28;20595;-78